sensor_id;sensor_type;location;lat;lon;timestamp;temperature;humidity
73939;DHT22;62291;47.554;8.504;2023-09-30T00:01:11;17.70;99.90
73939;DHT22;62291;47.554;8.504;2023-09-30T00:03:40;17.70;99.90
73939;DHT22;62291;47.554;8.504;2023-09-30T00:06:06;17.70;99.90
73939;DHT22;62291;47.554;8.504;2023-09-30T00:08:32;17.70;99.90
73939;DHT22;62291;47.554;8.504;2023-09-30T00:10:57;17.70;99.90
73939;DHT22;62291;47.554;8.504;2023-09-30T00:13:23;17.60;99.90
73939;DHT22;62291;47.554;8.504;2023-09-30T00:15:49;17.70;99.90
73939;DHT22;62291;47.554;8.504;2023-09-30T00:18:15;17.70;99.90
73939;DHT22;62291;47.554;8.504;2023-09-30T00:20:40;17.60;99.90
73939;DHT22;62291;47.554;8.504;2023-09-30T00:23:06;17.60;99.90
73939;DHT22;62291;47.554;8.504;2023-09-30T00:25:32;17.60;99.90
73939;DHT22;62291;47.554;8.504;2023-09-30T00:27:58;17.60;99.90
73939;DHT22;62291;47.554;8.504;2023-09-30T00:30:24;17.60;99.90
73939;DHT22;62291;47.554;8.504;2023-09-30T00:32:50;17.60;99.90
73939;DHT22;62291;47.554;8.504;2023-09-30T00:35:15;17.60;99.90
73939;DHT22;62291;47.554;8.504;2023-09-30T00:37:41;17.50;99.90
73939;DHT22;62291;47.554;8.504;2023-09-30T00:40:08;17.50;99.90
73939;DHT22;62291;47.554;8.504;2023-09-30T00:42:40;17.40;99.90
73939;DHT22;62291;47.554;8.504;2023-09-30T00:45:07;17.50;99.90
73939;DHT22;62291;47.554;8.504;2023-09-30T00:47:35;17.50;99.90
73939;DHT22;62291;47.554;8.504;2023-09-30T00:50:02;17.50;99.90
73939;DHT22;62291;47.554;8.504;2023-09-30T00:52:30;17.50;99.90
73939;DHT22;62291;47.554;8.504;2023-09-30T00:54:57;17.50;99.90
73939;DHT22;62291;47.554;8.504;2023-09-30T00:57:23;17.50;99.90
73939;DHT22;62291;47.554;8.504;2023-09-30T00:59:50;17.50;99.90
73939;DHT22;62291;47.554;8.504;2023-09-30T01:02:18;17.50;99.90
73939;DHT22;62291;47.554;8.504;2023-09-30T01:04:44;17.50;99.90
73939;DHT22;62291;47.554;8.504;2023-09-30T01:07:10;17.40;99.90
73939;DHT22;62291;47.554;8.504;2023-09-30T01:09:37;17.40;99.90
73939;DHT22;62291;47.554;8.504;2023-09-30T01:12:03;17.40;99.90
73939;DHT22;62291;47.554;8.504;2023-09-30T01:14:33;17.40;99.90
73939;DHT22;62291;47.554;8.504;2023-09-30T01:17:08;17.40;99.90
73939;DHT22;62291;47.554;8.504;2023-09-30T01:19:34;17.40;99.90
73939;DHT22;62291;47.554;8.504;2023-09-30T01:22:00;17.40;99.90
73939;DHT22;62291;47.554;8.504;2023-09-30T01:24:28;17.40;99.90
73939;DHT22;62291;47.554;8.504;2023-09-30T01:26:54;17.40;99.90
73939;DHT22;62291;47.554;8.504;2023-09-30T01:29:21;17.40;99.90
73939;DHT22;62291;47.554;8.504;2023-09-30T01:31:48;17.40;99.90
73939;DHT22;62291;47.554;8.504;2023-09-30T01:34:15;17.30;99.90
73939;DHT22;62291;47.554;8.504;2023-09-30T01:36:42;17.30;99.90
73939;DHT22;62291;47.554;8.504;2023-09-30T01:39:09;17.40;99.90
73939;DHT22;62291;47.554;8.504;2023-09-30T01:41:36;17.30;99.90
73939;DHT22;62291;47.554;8.504;2023-09-30T01:44:02;17.30;99.90
73939;DHT22;62291;47.554;8.504;2023-09-30T01:46:27;17.20;99.90
73939;DHT22;62291;47.554;8.504;2023-09-30T01:48:53;17.30;99.90
73939;DHT22;62291;47.554;8.504;2023-09-30T01:51:19;17.20;99.90
73939;DHT22;62291;47.554;8.504;2023-09-30T01:53:44;17.30;99.90
73939;DHT22;62291;47.554;8.504;2023-09-30T01:56:10;17.20;99.90
73939;DHT22;62291;47.554;8.504;2023-09-30T01:58:36;17.30;99.90
73939;DHT22;62291;47.554;8.504;2023-09-30T02:01:03;17.30;99.90
73939;DHT22;62291;47.554;8.504;2023-09-30T02:03:29;17.30;99.90
73939;DHT22;62291;47.554;8.504;2023-09-30T02:05:55;17.30;99.90
73939;DHT22;62291;47.554;8.504;2023-09-30T02:08:21;17.30;99.90
73939;DHT22;62291;47.554;8.504;2023-09-30T02:10:48;17.30;99.90
73939;DHT22;62291;47.554;8.504;2023-09-30T02:13:13;17.20;99.90
73939;DHT22;62291;47.554;8.504;2023-09-30T02:15:42;17.20;99.90
73939;DHT22;62291;47.554;8.504;2023-09-30T02:18:08;17.20;99.90
73939;DHT22;62291;47.554;8.504;2023-09-30T02:20:35;17.20;99.90
73939;DHT22;62291;47.554;8.504;2023-09-30T02:23:01;17.10;99.90
73939;DHT22;62291;47.554;8.504;2023-09-30T02:25:27;17.20;99.90
73939;DHT22;62291;47.554;8.504;2023-09-30T02:27:54;17.20;99.90
73939;DHT22;62291;47.554;8.504;2023-09-30T02:30:20;17.20;99.90
73939;DHT22;62291;47.554;8.504;2023-09-30T02:32:46;17.20;99.90
73939;DHT22;62291;47.554;8.504;2023-09-30T02:35:12;17.10;99.90
73939;DHT22;62291;47.554;8.504;2023-09-30T02:37:39;17.10;99.90
73939;DHT22;62291;47.554;8.504;2023-09-30T02:40:06;17.10;99.90
73939;DHT22;62291;47.554;8.504;2023-09-30T02:42:40;17.10;99.90
73939;DHT22;62291;47.554;8.504;2023-09-30T02:45:07;17.20;99.90
73939;DHT22;62291;47.554;8.504;2023-09-30T02:47:37;17.20;99.90
73939;DHT22;62291;47.554;8.504;2023-09-30T02:50:04;17.20;99.90
73939;DHT22;62291;47.554;8.504;2023-09-30T02:52:30;17.20;99.90
73939;DHT22;62291;47.554;8.504;2023-09-30T02:54:57;17.10;99.90
73939;DHT22;62291;47.554;8.504;2023-09-30T02:57:24;17.10;99.90
73939;DHT22;62291;47.554;8.504;2023-09-30T02:59:50;17.00;99.90
73939;DHT22;62291;47.554;8.504;2023-09-30T03:02:17;17.00;99.90
73939;DHT22;62291;47.554;8.504;2023-09-30T03:04:44;17.00;99.90
73939;DHT22;62291;47.554;8.504;2023-09-30T03:07:10;17.00;99.90
73939;DHT22;62291;47.554;8.504;2023-09-30T03:09:36;17.00;99.90
73939;DHT22;62291;47.554;8.504;2023-09-30T03:12:02;17.00;99.90
73939;DHT22;62291;47.554;8.504;2023-09-30T03:14:30;17.10;99.90
73939;DHT22;62291;47.554;8.504;2023-09-30T03:16:57;17.00;99.90
73939;DHT22;62291;47.554;8.504;2023-09-30T03:19:24;17.00;99.90
73939;DHT22;62291;47.554;8.504;2023-09-30T03:21:49;17.00;99.90
73939;DHT22;62291;47.554;8.504;2023-09-30T03:24:15;16.90;99.90
73939;DHT22;62291;47.554;8.504;2023-09-30T03:26:42;16.90;99.90
73939;DHT22;62291;47.554;8.504;2023-09-30T03:29:09;16.90;99.90
73939;DHT22;62291;47.554;8.504;2023-09-30T03:31:35;16.80;99.90
73939;DHT22;62291;47.554;8.504;2023-09-30T03:34:02;16.90;99.90
73939;DHT22;62291;47.554;8.504;2023-09-30T03:36:29;16.80;99.90
73939;DHT22;62291;47.554;8.504;2023-09-30T03:38:55;16.80;99.90
73939;DHT22;62291;47.554;8.504;2023-09-30T03:41:24;16.80;99.90
73939;DHT22;62291;47.554;8.504;2023-09-30T03:43:50;16.80;99.90
73939;DHT22;62291;47.554;8.504;2023-09-30T03:46:17;16.80;99.90
73939;DHT22;62291;47.554;8.504;2023-09-30T03:48:42;16.70;99.90
73939;DHT22;62291;47.554;8.504;2023-09-30T03:51:10;16.80;99.90
73939;DHT22;62291;47.554;8.504;2023-09-30T03:53:42;16.70;99.90
73939;DHT22;62291;47.554;8.504;2023-09-30T03:56:08;16.70;99.90
73939;DHT22;62291;47.554;8.504;2023-09-30T03:58:40;16.70;99.90
73939;DHT22;62291;47.554;8.504;2023-09-30T04:01:06;16.70;99.90
73939;DHT22;62291;47.554;8.504;2023-09-30T04:03:33;16.70;99.90
73939;DHT22;62291;47.554;8.504;2023-09-30T04:06:01;16.70;99.90
73939;DHT22;62291;47.554;8.504;2023-09-30T04:08:28;16.70;99.90
73939;DHT22;62291;47.554;8.504;2023-09-30T04:10:54;16.70;99.90
73939;DHT22;62291;47.554;8.504;2023-09-30T04:13:20;16.60;99.90
73939;DHT22;62291;47.554;8.504;2023-09-30T04:15:47;16.50;99.90
73939;DHT22;62291;47.554;8.504;2023-09-30T04:18:14;16.50;99.90
73939;DHT22;62291;47.554;8.504;2023-09-30T04:20:40;16.40;99.90
73939;DHT22;62291;47.554;8.504;2023-09-30T04:23:07;16.40;99.90
73939;DHT22;62291;47.554;8.504;2023-09-30T04:25:35;16.30;99.90
73939;DHT22;62291;47.554;8.504;2023-09-30T04:28:01;16.20;99.90
73939;DHT22;62291;47.554;8.504;2023-09-30T04:30:28;16.10;99.90
73939;DHT22;62291;47.554;8.504;2023-09-30T04:32:54;16.10;99.90
73939;DHT22;62291;47.554;8.504;2023-09-30T04:35:20;16.00;99.90
73939;DHT22;62291;47.554;8.504;2023-09-30T04:37:47;16.00;99.90
73939;DHT22;62291;47.554;8.504;2023-09-30T04:40:12;16.00;99.90
73939;DHT22;62291;47.554;8.504;2023-09-30T04:42:42;16.00;99.90
73939;DHT22;62291;47.554;8.504;2023-09-30T04:45:10;15.90;99.90
73939;DHT22;62291;47.554;8.504;2023-09-30T04:47:36;15.90;99.90
73939;DHT22;62291;47.554;8.504;2023-09-30T04:50:08;15.90;99.90
73939;DHT22;62291;47.554;8.504;2023-09-30T04:52:34;15.90;99.90
73939;DHT22;62291;47.554;8.504;2023-09-30T04:55:01;16.00;99.90
73939;DHT22;62291;47.554;8.504;2023-09-30T04:57:26;16.00;99.90
73939;DHT22;62291;47.554;8.504;2023-09-30T04:59:52;15.90;99.90
73939;DHT22;62291;47.554;8.504;2023-09-30T05:02:18;15.90;99.90
73939;DHT22;62291;47.554;8.504;2023-09-30T05:04:44;15.90;99.90
73939;DHT22;62291;47.554;8.504;2023-09-30T05:07:10;15.90;99.90
73939;DHT22;62291;47.554;8.504;2023-09-30T05:09:35;15.80;99.90
73939;DHT22;62291;47.554;8.504;2023-09-30T05:12:02;15.90;99.90
73939;DHT22;62291;47.554;8.504;2023-09-30T05:14:29;15.90;99.90
73939;DHT22;62291;47.554;8.504;2023-09-30T05:16:55;16.00;99.90
73939;DHT22;62291;47.554;8.504;2023-09-30T05:19:22;16.00;99.90
73939;DHT22;62291;47.554;8.504;2023-09-30T05:21:47;16.00;99.90
73939;DHT22;62291;47.554;8.504;2023-09-30T05:24:14;16.00;99.90
73939;DHT22;62291;47.554;8.504;2023-09-30T05:26:40;16.00;99.90
73939;DHT22;62291;47.554;8.504;2023-09-30T05:29:06;16.00;99.90
73939;DHT22;62291;47.554;8.504;2023-09-30T05:31:33;16.00;99.90
73939;DHT22;62291;47.554;8.504;2023-09-30T05:33:58;16.00;99.90
73939;DHT22;62291;47.554;8.504;2023-09-30T05:36:24;16.00;99.90
73939;DHT22;62291;47.554;8.504;2023-09-30T05:38:50;16.00;99.90
73939;DHT22;62291;47.554;8.504;2023-09-30T05:41:15;16.00;99.90
73939;DHT22;62291;47.554;8.504;2023-09-30T05:43:41;16.00;99.90
73939;DHT22;62291;47.554;8.504;2023-09-30T05:46:08;16.10;99.90
73939;DHT22;62291;47.554;8.504;2023-09-30T05:48:34;16.10;99.90
73939;DHT22;62291;47.554;8.504;2023-09-30T05:51:00;16.10;99.90
73939;DHT22;62291;47.554;8.504;2023-09-30T05:53:27;16.20;99.90
73939;DHT22;62291;47.554;8.504;2023-09-30T05:55:53;16.10;99.90
73939;DHT22;62291;47.554;8.504;2023-09-30T05:58:19;16.20;99.90
73939;DHT22;62291;47.554;8.504;2023-09-30T06:00:45;16.20;99.90
73939;DHT22;62291;47.554;8.504;2023-09-30T06:03:10;16.30;99.90
73939;DHT22;62291;47.554;8.504;2023-09-30T06:05:40;16.20;99.90
73939;DHT22;62291;47.554;8.504;2023-09-30T06:08:08;16.20;99.90
73939;DHT22;62291;47.554;8.504;2023-09-30T06:10:36;16.20;99.90
73939;DHT22;62291;47.554;8.504;2023-09-30T06:13:04;16.20;99.90
73939;DHT22;62291;47.554;8.504;2023-09-30T06:15:31;16.20;99.90
73939;DHT22;62291;47.554;8.504;2023-09-30T06:17:57;16.20;99.90
73939;DHT22;62291;47.554;8.504;2023-09-30T06:20:26;16.30;99.90
73939;DHT22;62291;47.554;8.504;2023-09-30T06:22:52;16.30;99.90
73939;DHT22;62291;47.554;8.504;2023-09-30T06:25:19;16.40;99.90
73939;DHT22;62291;47.554;8.504;2023-09-30T06:27:46;16.40;99.90
73939;DHT22;62291;47.554;8.504;2023-09-30T06:30:13;16.40;99.90
73939;DHT22;62291;47.554;8.504;2023-09-30T06:32:39;16.40;99.90
73939;DHT22;62291;47.554;8.504;2023-09-30T06:35:09;16.60;99.90
73939;DHT22;62291;47.554;8.504;2023-09-30T06:37:41;16.80;99.90
73939;DHT22;62291;47.554;8.504;2023-09-30T06:40:08;17.00;99.90
73939;DHT22;62291;47.554;8.504;2023-09-30T06:42:34;17.00;99.90
73939;DHT22;62291;47.554;8.504;2023-09-30T06:45:05;17.40;99.90
73939;DHT22;62291;47.554;8.504;2023-09-30T06:47:39;17.80;99.90
73939;DHT22;62291;47.554;8.504;2023-09-30T06:50:09;18.10;99.90
73939;DHT22;62291;47.554;8.504;2023-09-30T06:52:40;18.10;99.90
73939;DHT22;62291;47.554;8.504;2023-09-30T06:55:07;18.20;99.90
73939;DHT22;62291;47.554;8.504;2023-09-30T06:57:37;18.30;99.90
73939;DHT22;62291;47.554;8.504;2023-09-30T07:00:08;18.30;99.90
73939;DHT22;62291;47.554;8.504;2023-09-30T07:02:35;18.30;99.90
73939;DHT22;62291;47.554;8.504;2023-09-30T07:05:05;18.30;99.90
73939;DHT22;62291;47.554;8.504;2023-09-30T07:07:30;18.30;99.90
73939;DHT22;62291;47.554;8.504;2023-09-30T07:09:56;18.20;99.90
73939;DHT22;62291;47.554;8.504;2023-09-30T07:12:22;18.50;99.90
73939;DHT22;62291;47.554;8.504;2023-09-30T07:14:47;19.10;99.90
73939;DHT22;62291;47.554;8.504;2023-09-30T07:17:13;19.70;99.90
73939;DHT22;62291;47.554;8.504;2023-09-30T07:19:39;19.60;99.90
73939;DHT22;62291;47.554;8.504;2023-09-30T07:22:05;19.60;99.90
73939;DHT22;62291;47.554;8.504;2023-09-30T07:24:31;19.60;99.90
73939;DHT22;62291;47.554;8.504;2023-09-30T07:26:56;19.60;99.90
73939;DHT22;62291;47.554;8.504;2023-09-30T07:29:23;19.60;99.90
73939;DHT22;62291;47.554;8.504;2023-09-30T07:31:48;19.50;99.90
73939;DHT22;62291;47.554;8.504;2023-09-30T07:34:16;19.40;99.90
73939;DHT22;62291;47.554;8.504;2023-09-30T07:36:42;19.50;99.90
73939;DHT22;62291;47.554;8.504;2023-09-30T07:39:08;19.60;99.90
73939;DHT22;62291;47.554;8.504;2023-09-30T07:41:37;19.60;99.90
73939;DHT22;62291;47.554;8.504;2023-09-30T07:44:03;19.90;99.90
73939;DHT22;62291;47.554;8.504;2023-09-30T07:46:29;20.60;99.90
73939;DHT22;62291;47.554;8.504;2023-09-30T07:48:56;21.40;99.90
73939;DHT22;62291;47.554;8.504;2023-09-30T07:51:21;22.20;99.90
73939;DHT22;62291;47.554;8.504;2023-09-30T07:53:47;22.70;99.90
73939;DHT22;62291;47.554;8.504;2023-09-30T07:56:13;23.30;99.90
73939;DHT22;62291;47.554;8.504;2023-09-30T07:58:39;23.60;99.90
73939;DHT22;62291;47.554;8.504;2023-09-30T08:01:05;23.40;99.90
73939;DHT22;62291;47.554;8.504;2023-09-30T08:03:32;23.40;99.90
73939;DHT22;62291;47.554;8.504;2023-09-30T08:05:59;23.40;99.90
73939;DHT22;62291;47.554;8.504;2023-09-30T08:08:25;23.20;99.90
73939;DHT22;62291;47.554;8.504;2023-09-30T08:10:50;22.70;99.90
73939;DHT22;62291;47.554;8.504;2023-09-30T08:13:21;22.20;99.90
73939;DHT22;62291;47.554;8.504;2023-09-30T08:15:49;22.30;99.90
73939;DHT22;62291;47.554;8.504;2023-09-30T08:18:14;22.60;99.90
73939;DHT22;62291;47.554;8.504;2023-09-30T08:20:40;23.00;99.90
73939;DHT22;62291;47.554;8.504;2023-09-30T08:23:06;22.70;99.90
73939;DHT22;62291;47.554;8.504;2023-09-30T08:25:31;22.70;99.90
73939;DHT22;62291;47.554;8.504;2023-09-30T08:27:57;22.50;99.90
73939;DHT22;62291;47.554;8.504;2023-09-30T08:30:23;22.20;99.90
73939;DHT22;62291;47.554;8.504;2023-09-30T08:32:48;21.80;99.90
73939;DHT22;62291;47.554;8.504;2023-09-30T08:35:14;21.60;99.90
73939;DHT22;62291;47.554;8.504;2023-09-30T08:37:40;21.60;99.90
73939;DHT22;62291;47.554;8.504;2023-09-30T08:40:07;21.60;99.90
73939;DHT22;62291;47.554;8.504;2023-09-30T08:42:35;21.70;99.90
73939;DHT22;62291;47.554;8.504;2023-09-30T08:45:01;21.90;99.90
73939;DHT22;62291;47.554;8.504;2023-09-30T08:47:28;22.50;99.90
73939;DHT22;62291;47.554;8.504;2023-09-30T08:49:59;23.00;99.90
73939;DHT22;62291;47.554;8.504;2023-09-30T08:52:32;23.30;99.90
73939;DHT22;62291;47.554;8.504;2023-09-30T08:54:59;23.10;99.90
73939;DHT22;62291;47.554;8.504;2023-09-30T08:57:25;22.60;99.90
73939;DHT22;62291;47.554;8.504;2023-09-30T08:59:53;22.80;99.90
73939;DHT22;62291;47.554;8.504;2023-09-30T09:02:18;23.40;99.90
73939;DHT22;62291;47.554;8.504;2023-09-30T09:04:45;23.90;99.90
73939;DHT22;62291;47.554;8.504;2023-09-30T09:07:11;24.20;99.90
73939;DHT22;62291;47.554;8.504;2023-09-30T09:09:37;24.40;99.90
73939;DHT22;62291;47.554;8.504;2023-09-30T09:12:03;25.10;99.90
73939;DHT22;62291;47.554;8.504;2023-09-30T09:14:42;25.20;98.80
73939;DHT22;62291;47.554;8.504;2023-09-30T09:17:11;25.50;98.40
73939;DHT22;62291;47.554;8.504;2023-09-30T09:19:37;25.20;98.50
73939;DHT22;62291;47.554;8.504;2023-09-30T09:22:04;24.50;99.00
73939;DHT22;62291;47.554;8.504;2023-09-30T09:24:37;24.00;99.90
73939;DHT22;62291;47.554;8.504;2023-09-30T09:27:12;23.90;99.80
73939;DHT22;62291;47.554;8.504;2023-09-30T09:29:38;23.40;99.90
73939;DHT22;62291;47.554;8.504;2023-09-30T09:32:09;23.20;99.90
73939;DHT22;62291;47.554;8.504;2023-09-30T09:34:35;23.30;99.90
73939;DHT22;62291;47.554;8.504;2023-09-30T09:37:21;23.50;99.90
73939;DHT22;62291;47.554;8.504;2023-09-30T09:39:55;23.40;99.90
73939;DHT22;62291;47.554;8.504;2023-09-30T09:42:29;23.20;99.90
73939;DHT22;62291;47.554;8.504;2023-09-30T09:44:57;23.20;99.90
73939;DHT22;62291;47.554;8.504;2023-09-30T09:47:23;23.10;99.90
73939;DHT22;62291;47.554;8.504;2023-09-30T09:49:52;22.80;99.90
73939;DHT22;62291;47.554;8.504;2023-09-30T09:52:20;23.00;99.90
73939;DHT22;62291;47.554;8.504;2023-09-30T09:54:46;23.40;99.90
73939;DHT22;62291;47.554;8.504;2023-09-30T09:57:12;23.20;99.90
73939;DHT22;62291;47.554;8.504;2023-09-30T09:59:39;23.00;99.90
73939;DHT22;62291;47.554;8.504;2023-09-30T10:02:10;22.60;99.90
73939;DHT22;62291;47.554;8.504;2023-09-30T10:04:37;22.50;99.90
73939;DHT22;62291;47.554;8.504;2023-09-30T10:07:04;22.90;99.90
73939;DHT22;62291;47.554;8.504;2023-09-30T10:09:34;23.20;99.90
73939;DHT22;62291;47.554;8.504;2023-09-30T10:12:04;23.30;99.90
73939;DHT22;62291;47.554;8.504;2023-09-30T10:14:33;23.50;99.90
73939;DHT22;62291;47.554;8.504;2023-09-30T10:17:01;23.70;99.90
73939;DHT22;62291;47.554;8.504;2023-09-30T10:19:26;24.40;99.90
73939;DHT22;62291;47.554;8.504;2023-09-30T10:24:59;24.90;99.90
73939;DHT22;62291;47.554;8.504;2023-09-30T10:30:06;24.80;99.10
73939;DHT22;62291;47.554;8.504;2023-09-30T10:40:48;25.30;96.80
73939;DHT22;62291;47.554;8.504;2023-09-30T10:43:34;24.80;97.30
73939;DHT22;62291;47.554;8.504;2023-09-30T10:46:29;24.60;97.80
73939;DHT22;62291;47.554;8.504;2023-09-30T10:48:47;24.70;97.80
73939;DHT22;62291;47.554;8.504;2023-09-30T10:51:17;24.90;98.80
73939;DHT22;62291;47.554;8.504;2023-09-30T10:56:22;24.70;97.30
73939;DHT22;62291;47.554;8.504;2023-09-30T10:58:50;24.50;99.30
73939;DHT22;62291;47.554;8.504;2023-09-30T11:01:20;24.70;97.80
73939;DHT22;62291;47.554;8.504;2023-09-30T11:03:47;24.70;97.70
73939;DHT22;62291;47.554;8.504;2023-09-30T11:06:17;24.80;96.70
73939;DHT22;62291;47.554;8.504;2023-09-30T11:08:56;24.30;97.90
73939;DHT22;62291;47.554;8.504;2023-09-30T11:11:38;24.30;97.80
73939;DHT22;62291;47.554;8.504;2023-09-30T11:14:31;24.30;97.90
73939;DHT22;62291;47.554;8.504;2023-09-30T11:17:01;24.30;98.30
73939;DHT22;62291;47.554;8.504;2023-09-30T11:19:49;24.40;98.50
73939;DHT22;62291;47.554;8.504;2023-09-30T11:22:15;24.70;97.80
73939;DHT22;62291;47.554;8.504;2023-09-30T11:24:41;25.00;98.10
73939;DHT22;62291;47.554;8.504;2023-09-30T11:27:07;24.80;99.30
73939;DHT22;62291;47.554;8.504;2023-09-30T11:29:32;24.50;98.40
73939;DHT22;62291;47.554;8.504;2023-09-30T11:31:58;24.20;98.90
73939;DHT22;62291;47.554;8.504;2023-09-30T11:34:34;23.60;99.00
73939;DHT22;62291;47.554;8.504;2023-09-30T11:37:02;23.50;99.30
73939;DHT22;62291;47.554;8.504;2023-09-30T11:39:31;23.60;99.90
73939;DHT22;62291;47.554;8.504;2023-09-30T11:41:57;23.80;99.20
73939;DHT22;62291;47.554;8.504;2023-09-30T11:44:25;23.50;98.70
73939;DHT22;62291;47.554;8.504;2023-09-30T11:46:55;23.20;99.30
73939;DHT22;62291;47.554;8.504;2023-09-30T11:51:54;22.80;99.90
73939;DHT22;62291;47.554;8.504;2023-09-30T11:54:20;23.00;99.90
73939;DHT22;62291;47.554;8.504;2023-09-30T11:56:48;23.50;99.90
73939;DHT22;62291;47.554;8.504;2023-09-30T11:59:14;23.60;99.90
73939;DHT22;62291;47.554;8.504;2023-09-30T12:01:40;24.10;98.90
73939;DHT22;62291;47.554;8.504;2023-09-30T12:04:06;24.50;98.60
73939;DHT22;62291;47.554;8.504;2023-09-30T12:06:32;24.70;98.20
73939;DHT22;62291;47.554;8.504;2023-09-30T12:09:00;24.40;97.20
73939;DHT22;62291;47.554;8.504;2023-09-30T12:11:27;24.40;97.40
73939;DHT22;62291;47.554;8.504;2023-09-30T12:13:54;24.70;97.90
73939;DHT22;62291;47.554;8.504;2023-09-30T12:16:20;24.30;96.90
73939;DHT22;62291;47.554;8.504;2023-09-30T12:18:46;24.00;96.70
73939;DHT22;62291;47.554;8.504;2023-09-30T12:21:13;23.70;97.80
73939;DHT22;62291;47.554;8.504;2023-09-30T12:23:39;23.90;97.40
73939;DHT22;62291;47.554;8.504;2023-09-30T12:26:05;24.00;98.50
73939;DHT22;62291;47.554;8.504;2023-09-30T12:28:32;24.00;99.00
73939;DHT22;62291;47.554;8.504;2023-09-30T12:30:59;23.80;98.50
73939;DHT22;62291;47.554;8.504;2023-09-30T12:33:24;23.60;98.10
73939;DHT22;62291;47.554;8.504;2023-09-30T12:35:50;23.70;99.00
73939;DHT22;62291;47.554;8.504;2023-09-30T12:38:17;23.90;98.50
73939;DHT22;62291;47.554;8.504;2023-09-30T12:40:42;24.00;97.10
73939;DHT22;62291;47.554;8.504;2023-09-30T12:43:09;24.10;97.40
73939;DHT22;62291;47.554;8.504;2023-09-30T12:45:35;24.30;97.30
73939;DHT22;62291;47.554;8.504;2023-09-30T12:48:04;24.20;96.00
73939;DHT22;62291;47.554;8.504;2023-09-30T12:50:30;23.80;96.60
73939;DHT22;62291;47.554;8.504;2023-09-30T12:52:56;23.80;97.40
73939;DHT22;62291;47.554;8.504;2023-09-30T12:55:21;24.00;97.50
73939;DHT22;62291;47.554;8.504;2023-09-30T12:57:47;23.80;96.00
73939;DHT22;62291;47.554;8.504;2023-09-30T13:00:13;23.70;96.20
73939;DHT22;62291;47.554;8.504;2023-09-30T13:02:41;23.80;96.70
73939;DHT22;62291;47.554;8.504;2023-09-30T13:05:08;24.00;96.20
73939;DHT22;62291;47.554;8.504;2023-09-30T13:07:33;24.20;95.70
73939;DHT22;62291;47.554;8.504;2023-09-30T13:09:59;24.40;96.20
73939;DHT22;62291;47.554;8.504;2023-09-30T13:12:26;24.30;95.70
73939;DHT22;62291;47.554;8.504;2023-09-30T13:14:52;24.20;95.70
73939;DHT22;62291;47.554;8.504;2023-09-30T13:17:22;23.90;95.00
73939;DHT22;62291;47.554;8.504;2023-09-30T13:19:47;23.70;96.00
73939;DHT22;62291;47.554;8.504;2023-09-30T13:22:13;24.00;96.70
73939;DHT22;62291;47.554;8.504;2023-09-30T13:24:42;24.20;97.40
73939;DHT22;62291;47.554;8.504;2023-09-30T13:27:08;24.40;96.20
73939;DHT22;62291;47.554;8.504;2023-09-30T13:29:33;24.40;94.90
73939;DHT22;62291;47.554;8.504;2023-09-30T13:31:59;24.40;95.00
73939;DHT22;62291;47.554;8.504;2023-09-30T13:34:25;24.50;94.40
73939;DHT22;62291;47.554;8.504;2023-09-30T13:36:51;24.70;95.60
73939;DHT22;62291;47.554;8.504;2023-09-30T13:39:16;24.90;95.00
73939;DHT22;62291;47.554;8.504;2023-09-30T13:41:43;24.70;95.40
73939;DHT22;62291;47.554;8.504;2023-09-30T13:44:13;24.70;95.60
73939;DHT22;62291;47.554;8.504;2023-09-30T13:46:38;24.60;94.80
73939;DHT22;62291;47.554;8.504;2023-09-30T13:49:04;24.40;95.00
73939;DHT22;62291;47.554;8.504;2023-09-30T13:51:30;24.40;96.00
73939;DHT22;62291;47.554;8.504;2023-09-30T13:53:55;24.50;96.10
73939;DHT22;62291;47.554;8.504;2023-09-30T13:56:21;24.50;96.50
73939;DHT22;62291;47.554;8.504;2023-09-30T13:58:47;24.60;95.70
73939;DHT22;62291;47.554;8.504;2023-09-30T14:01:14;24.60;96.10
73939;DHT22;62291;47.554;8.504;2023-09-30T14:03:40;24.50;95.80
73939;DHT22;62291;47.554;8.504;2023-09-30T14:06:13;24.50;96.00
73939;DHT22;62291;47.554;8.504;2023-09-30T14:08:39;24.40;95.10
73939;DHT22;62291;47.554;8.504;2023-09-30T14:11:08;24.00;95.20
73939;DHT22;62291;47.554;8.504;2023-09-30T14:13:34;23.80;96.70
73939;DHT22;62291;47.554;8.504;2023-09-30T14:15:59;23.70;95.20
73939;DHT22;62291;47.554;8.504;2023-09-30T14:18:26;23.60;97.30
73939;DHT22;62291;47.554;8.504;2023-09-30T14:20:51;23.60;97.40
73939;DHT22;62291;47.554;8.504;2023-09-30T14:23:18;23.50;96.10
73939;DHT22;62291;47.554;8.504;2023-09-30T14:25:44;23.50;97.10
73939;DHT22;62291;47.554;8.504;2023-09-30T14:28:10;23.50;97.20
73939;DHT22;62291;47.554;8.504;2023-09-30T14:30:35;23.30;96.70
73939;DHT22;62291;47.554;8.504;2023-09-30T14:33:01;23.20;97.20
73939;DHT22;62291;47.554;8.504;2023-09-30T14:35:28;23.20;96.80
73939;DHT22;62291;47.554;8.504;2023-09-30T14:37:54;23.20;96.90
73939;DHT22;62291;47.554;8.504;2023-09-30T14:40:22;23.20;97.80
73939;DHT22;62291;47.554;8.504;2023-09-30T14:42:47;23.10;97.50
73939;DHT22;62291;47.554;8.504;2023-09-30T14:45:14;22.90;96.40
73939;DHT22;62291;47.554;8.504;2023-09-30T14:47:40;23.00;98.50
73939;DHT22;62291;47.554;8.504;2023-09-30T14:50:07;23.00;96.90
73939;DHT22;62291;47.554;8.504;2023-09-30T14:52:33;23.00;96.60
73939;DHT22;62291;47.554;8.504;2023-09-30T14:54:59;23.10;97.70
73939;DHT22;62291;47.554;8.504;2023-09-30T14:57:25;23.10;97.20
73939;DHT22;62291;47.554;8.504;2023-09-30T14:59:51;23.10;98.40
73939;DHT22;62291;47.554;8.504;2023-09-30T15:02:16;23.10;98.60
73939;DHT22;62291;47.554;8.504;2023-09-30T15:04:43;23.00;96.90
73939;DHT22;62291;47.554;8.504;2023-09-30T15:07:08;22.90;96.90
73939;DHT22;62291;47.554;8.504;2023-09-30T15:09:34;22.90;97.80
73939;DHT22;62291;47.554;8.504;2023-09-30T15:12:00;23.00;97.90
73939;DHT22;62291;47.554;8.504;2023-09-30T15:14:26;22.90;97.10
73939;DHT22;62291;47.554;8.504;2023-09-30T15:16:52;22.90;97.40
73939;DHT22;62291;47.554;8.504;2023-09-30T15:19:17;22.90;98.40
73939;DHT22;62291;47.554;8.504;2023-09-30T15:21:43;22.80;97.90
73939;DHT22;62291;47.554;8.504;2023-09-30T15:24:09;22.80;98.80
73939;DHT22;62291;47.554;8.504;2023-09-30T15:26:36;22.70;99.20
73939;DHT22;62291;47.554;8.504;2023-09-30T15:29:01;22.60;99.40
73939;DHT22;62291;47.554;8.504;2023-09-30T15:31:29;22.60;99.30
73939;DHT22;62291;47.554;8.504;2023-09-30T15:33:58;22.50;99.80
73939;DHT22;62291;47.554;8.504;2023-09-30T15:36:24;22.40;99.80
73939;DHT22;62291;47.554;8.504;2023-09-30T15:38:51;22.40;99.90
73939;DHT22;62291;47.554;8.504;2023-09-30T15:41:22;22.30;99.90
73939;DHT22;62291;47.554;8.504;2023-09-30T15:43:49;22.30;99.90
73939;DHT22;62291;47.554;8.504;2023-09-30T15:46:15;22.30;99.90
73939;DHT22;62291;47.554;8.504;2023-09-30T15:48:40;22.20;99.70